createdAt,value
2024-03-02T00:00:42.428Z,8.41
2024-03-02T00:01:42.312Z,8.44
2024-03-02T00:02:42.310Z,8.47
2024-03-02T00:03:42.290Z,8.48
2024-03-02T00:04:42.256Z,8.52
2024-03-02T00:05:42.250Z,8.50
2024-03-02T00:06:42.259Z,8.50
2024-03-02T00:07:42.233Z,8.55
2024-03-02T00:08:42.209Z,8.58
2024-03-02T00:09:42.227Z,8.59
2024-03-02T00:10:42.268Z,8.59
2024-03-02T00:11:42.203Z,8.58
2024-03-02T00:12:42.286Z,8.58
2024-03-02T00:13:42.388Z,8.61
2024-03-02T00:14:42.156Z,8.61
2024-03-02T00:15:42.210Z,8.62
2024-03-02T00:16:42.139Z,8.66
2024-03-02T00:17:42.168Z,8.63
2024-03-02T00:18:42.146Z,8.65
2024-03-02T00:19:42.096Z,8.65
2024-03-02T00:20:42.087Z,8.68
2024-03-02T00:21:42.130Z,8.70
2024-03-02T00:22:42.058Z,8.68
2024-03-02T00:23:42.058Z,8.66
2024-03-02T00:24:42.096Z,8.68
2024-03-02T00:25:42.061Z,8.68
2024-03-02T00:26:42.031Z,8.68
2024-03-02T00:27:42.037Z,8.70
2024-03-02T00:28:42.000Z,8.71
2024-03-02T00:29:41.986Z,8.71
2024-03-02T00:30:42.014Z,8.74
2024-03-02T00:31:41.976Z,8.74
2024-03-02T00:32:41.996Z,8.73
2024-03-02T00:33:41.995Z,8.73
2024-03-02T00:34:41.942Z,8.70
2024-03-02T00:35:41.973Z,8.70
2024-03-02T00:36:42.050Z,8.68
2024-03-02T00:37:41.922Z,8.71
2024-03-02T00:38:41.914Z,8.73
2024-03-02T00:39:41.930Z,8.76
2024-03-02T00:40:41.887Z,8.77
2024-03-02T00:41:41.873Z,8.79
2024-03-02T00:42:41.901Z,8.76
2024-03-02T00:43:44.159Z,8.76
2024-03-02T00:44:41.839Z,8.79
2024-03-02T00:45:41.859Z,8.79
2024-03-02T00:46:41.806Z,8.77
2024-03-02T00:47:41.816Z,8.76
2024-03-02T00:48:41.800Z,8.73
2024-03-02T00:49:42.052Z,8.74
2024-03-02T00:50:41.775Z,8.71
2024-03-02T00:51:41.859Z,8.70
2024-03-02T00:52:41.734Z,8.68
2024-03-02T00:53:41.732Z,8.71
2024-03-02T00:54:41.736Z,8.71
2024-03-02T00:55:41.713Z,8.70
2024-03-02T00:56:41.688Z,8.73
2024-03-02T00:57:41.729Z,8.68
2024-03-02T00:58:41.691Z,8.65
2024-03-02T00:59:41.686Z,8.63
2024-03-02T01:00:41.816Z,8.63
2024-03-02T01:01:41.704Z,8.63
2024-03-02T01:02:41.630Z,8.63
2024-03-02T01:03:41.680Z,8.58
2024-03-02T01:04:41.635Z,8.58
2024-03-02T01:05:41.613Z,8.56
2024-03-02T01:06:41.600Z,8.53
2024-03-02T01:07:41.631Z,8.53
2024-03-02T01:08:41.602Z,8.55
2024-03-02T01:09:41.605Z,8.53
2024-03-02T01:10:41.582Z,8.56
2024-03-02T01:11:41.564Z,8.58
2024-03-02T01:12:41.602Z,8.59
2024-03-02T01:13:41.547Z,8.61
2024-03-02T01:14:41.509Z,8.61
2024-03-02T01:15:41.545Z,8.58
2024-03-02T01:16:41.491Z,8.56
2024-03-02T01:17:41.491Z,8.55
2024-03-02T01:18:41.704Z,8.55
2024-03-02T01:19:41.573Z,8.58
2024-03-02T01:20:41.444Z,8.53
2024-03-02T01:21:41.468Z,8.52
2024-03-02T01:22:41.438Z,8.55
2024-03-02T01:23:41.411Z,8.58
2024-03-02T01:24:41.415Z,8.59
2024-03-02T01:25:41.412Z,8.56
2024-03-02T01:26:41.464Z,8.58
2024-03-02T01:27:41.495Z,8.53
2024-03-02T01:28:41.388Z,8.58
2024-03-02T01:29:41.350Z,8.56
2024-03-02T01:30:41.401Z,8.61
2024-03-02T01:31:41.340Z,8.63
2024-03-02T01:32:41.329Z,8.61
2024-03-02T01:33:41.334Z,8.58
2024-03-02T01:34:41.298Z,8.58
2024-03-02T01:35:41.275Z,8.58
2024-03-02T01:36:41.297Z,8.55
2024-03-02T01:37:41.251Z,8.55
2024-03-02T01:38:41.250Z,8.56
2024-03-02T01:39:41.266Z,8.56
2024-03-02T01:40:41.239Z,8.58
2024-03-02T01:41:41.240Z,8.58
2024-03-02T01:42:41.271Z,8.58
2024-03-02T01:43:42.209Z,8.56
2024-03-02T01:44:41.195Z,8.58
2024-03-02T01:45:41.202Z,8.58
2024-03-02T01:46:41.164Z,8.56
2024-03-02T01:47:41.193Z,8.58
2024-03-02T01:48:41.156Z,8.58
2024-03-02T01:49:41.132Z,8.56
2024-03-02T01:50:41.137Z,8.56
2024-03-02T01:51:41.146Z,8.62
2024-03-02T01:52:41.093Z,8.66
2024-03-02T01:53:41.081Z,8.68
2024-03-02T01:54:41.126Z,8.70
2024-03-02T01:55:41.078Z,8.73
2024-03-02T01:56:41.058Z,8.76
2024-03-02T01:57:41.086Z,8.79
2024-03-02T01:58:41.041Z,8.79
2024-03-02T01:59:41.035Z,8.80
2024-03-02T02:00:41.132Z,8.83
2024-03-02T02:01:41.028Z,8.81
2024-03-02T02:02:41.013Z,8.77
2024-03-02T02:03:40.995Z,8.77
2024-03-02T02:04:41.152Z,8.79
2024-03-02T02:05:40.952Z,8.79
2024-03-02T02:06:40.975Z,8.79
2024-03-02T02:07:40.932Z,8.77
2024-03-02T02:08:40.945Z,8.76
2024-03-02T02:09:40.971Z,8.77
2024-03-02T02:10:40.909Z,8.74
2024-03-02T02:11:40.904Z,8.71
2024-03-02T02:12:40.941Z,8.76
2024-03-02T02:13:40.921Z,8.73
2024-03-02T02:14:40.859Z,8.70
2024-03-02T02:15:40.857Z,8.68
2024-03-02T02:16:40.837Z,8.71
2024-03-02T02:17:40.865Z,8.73
2024-03-02T02:18:40.840Z,8.71
2024-03-02T02:19:40.802Z,8.68
2024-03-02T02:20:40.807Z,8.65
2024-03-02T02:21:40.813Z,8.62
2024-03-02T02:22:40.783Z,8.61
2024-03-02T02:23:40.776Z,8.62
2024-03-02T02:24:40.833Z,8.63
2024-03-02T02:25:40.737Z,8.62
2024-03-02T02:26:40.733Z,8.58
2024-03-02T02:27:40.769Z,8.56
2024-03-02T02:28:40.706Z,8.55
2024-03-02T02:29:40.690Z,8.56
2024-03-02T02:30:40.760Z,8.55
2024-03-02T02:31:40.675Z,8.53
2024-03-02T02:32:40.686Z,8.55
2024-03-02T02:33:40.767Z,8.52
2024-03-02T02:34:40.653Z,8.55
2024-03-02T02:35:40.638Z,8.52
2024-03-02T02:36:40.667Z,8.45
2024-03-02T02:37:40.695Z,8.50
2024-03-02T02:38:40.662Z,8.50
2024-03-02T02:39:40.710Z,8.50
2024-03-02T02:40:40.590Z,8.52
2024-03-02T02:41:40.615Z,8.53
2024-03-02T02:42:40.589Z,8.53
2024-03-02T02:43:40.552Z,8.55
2024-03-02T02:44:40.638Z,8.53
2024-03-02T02:45:40.625Z,8.56
2024-03-02T02:46:40.608Z,8.56
2024-03-02T02:47:40.612Z,8.55
2024-03-02T02:48:40.537Z,8.58
2024-03-02T02:49:40.476Z,8.58
2024-03-02T02:50:40.496Z,8.52
2024-03-02T02:51:40.513Z,8.50
2024-03-02T02:52:40.470Z,8.50
2024-03-02T02:53:40.442Z,8.50
2024-03-02T02:54:40.447Z,8.50
2024-03-02T02:55:40.450Z,8.50
2024-03-02T02:56:40.419Z,8.52
2024-03-02T02:57:40.552Z,8.50
2024-03-02T02:58:40.465Z,8.48
2024-03-02T02:59:40.376Z,8.45
2024-03-02T03:00:40.440Z,8.47
2024-03-02T03:01:40.415Z,8.47
2024-03-02T03:02:40.345Z,8.45
2024-03-02T03:03:40.354Z,8.44
2024-03-02T03:04:40.380Z,8.44
2024-03-02T03:05:40.322Z,8.44
2024-03-02T03:06:40.385Z,8.44
2024-03-02T03:07:40.333Z,8.44
2024-03-02T03:08:40.433Z,8.44
2024-03-02T03:09:40.330Z,8.47
2024-03-02T03:10:40.267Z,8.48
2024-03-02T03:11:40.245Z,8.48
2024-03-02T03:12:40.344Z,8.47
2024-03-02T03:13:40.227Z,8.45
2024-03-02T03:14:40.229Z,8.44
2024-03-02T03:15:40.221Z,8.44
2024-03-02T03:16:40.198Z,8.43
2024-03-02T03:17:40.180Z,8.43
2024-03-02T03:18:40.209Z,8.41
2024-03-02T03:19:40.174Z,8.43
2024-03-02T03:20:40.157Z,8.41
2024-03-02T03:21:40.194Z,8.43
2024-03-02T03:22:40.235Z,8.43
2024-03-02T03:23:40.125Z,8.40
2024-03-02T03:24:40.134Z,8.38
2024-03-02T03:25:40.103Z,8.38
2024-03-02T03:26:40.085Z,8.38
2024-03-02T03:27:40.114Z,8.38
2024-03-02T03:28:40.084Z,8.36
2024-03-02T03:29:40.078Z,8.36
2024-03-02T03:30:40.089Z,8.34
2024-03-02T03:31:40.037Z,8.34
2024-03-02T03:32:40.032Z,8.34
2024-03-02T03:33:40.030Z,8.34
2024-03-02T03:34:40.014Z,8.34
2024-03-02T03:35:39.980Z,8.36
2024-03-02T03:36:40.011Z,8.40
2024-03-02T03:37:39.976Z,8.40
2024-03-02T03:38:39.977Z,8.40
2024-03-02T03:39:39.953Z,8.40
2024-03-02T03:40:39.968Z,8.38
2024-03-02T03:41:39.925Z,8.38
2024-03-02T03:42:40.295Z,8.40
2024-03-02T03:43:39.904Z,8.40
2024-03-02T03:44:39.898Z,8.40
2024-03-02T03:45:39.891Z,8.40
2024-03-02T03:46:39.869Z,8.38
2024-03-02T03:47:39.909Z,8.40
2024-03-02T03:48:39.933Z,8.44
2024-03-02T03:49:39.851Z,8.43
2024-03-02T03:50:39.844Z,8.43
2024-03-02T03:51:39.863Z,8.43
2024-03-02T03:52:39.834Z,8.41
2024-03-02T03:53:39.786Z,8.38
2024-03-02T03:54:39.832Z,8.37
2024-03-02T03:55:39.774Z,8.37
2024-03-02T03:56:40.015Z,8.33
2024-03-02T03:57:39.779Z,8.30
2024-03-02T03:58:39.755Z,8.26
2024-03-02T03:59:39.730Z,8.23
2024-03-02T04:00:39.884Z,8.23
2024-03-02T04:01:39.771Z,8.22
2024-03-02T04:02:39.702Z,8.18
2024-03-02T04:03:39.710Z,8.18
2024-03-02T04:04:39.681Z,8.16
2024-03-02T04:05:39.711Z,8.18
2024-03-02T04:06:39.720Z,8.15
2024-03-02T04:07:39.660Z,8.11
2024-03-02T04:08:39.641Z,8.07
2024-03-02T04:09:39.686Z,8.04
2024-03-02T04:10:39.628Z,8.01
2024-03-02T04:11:39.595Z,7.98
2024-03-02T04:12:39.688Z,7.98
2024-03-02T04:13:39.578Z,7.93
2024-03-02T04:14:39.584Z,7.92
2024-03-02T04:15:39.608Z,7.89
2024-03-02T04:16:39.565Z,7.87
2024-03-02T04:17:39.548Z,7.87
2024-03-02T04:18:39.572Z,7.87
2024-03-02T04:19:39.524Z,7.85
2024-03-02T04:20:39.514Z,7.80
2024-03-02T04:21:39.529Z,7.82
2024-03-02T04:22:39.483Z,7.83
2024-03-02T04:23:39.523Z,7.80
2024-03-02T04:24:39.558Z,7.77
2024-03-02T04:25:39.460Z,7.75
2024-03-02T04:26:39.467Z,7.77
2024-03-02T04:27:39.447Z,7.74
2024-03-02T04:28:39.451Z,7.72
2024-03-02T04:29:39.430Z,7.74
2024-03-02T04:30:39.452Z,7.68
2024-03-02T04:31:39.489Z,7.64
2024-03-02T04:32:39.407Z,7.64
2024-03-02T04:33:39.397Z,7.63
2024-03-02T04:34:39.412Z,7.61
2024-03-02T04:35:39.347Z,7.58
2024-03-02T04:36:39.364Z,7.60
2024-03-02T04:37:39.329Z,7.57
2024-03-02T04:38:39.324Z,7.55
2024-03-02T04:39:39.326Z,7.52
2024-03-02T04:40:39.312Z,7.49
2024-03-02T04:41:39.296Z,7.46
2024-03-02T04:42:39.312Z,7.43
2024-03-02T04:43:39.283Z,7.42
2024-03-02T04:44:39.242Z,7.40
2024-03-02T04:45:39.367Z,7.37
2024-03-02T04:46:39.218Z,7.34
2024-03-02T04:47:39.216Z,7.34
2024-03-02T04:48:39.382Z,7.35
2024-03-02T04:49:39.312Z,7.31
2024-03-02T04:50:39.218Z,7.30
2024-03-02T04:51:39.226Z,7.30
2024-03-02T04:52:39.188Z,7.28
2024-03-02T04:53:39.182Z,7.28
2024-03-02T04:54:39.183Z,7.25
2024-03-02T04:55:39.182Z,7.25
2024-03-02T04:56:39.113Z,7.23
2024-03-02T04:57:39.185Z,7.21
2024-03-02T04:58:39.091Z,7.23
2024-03-02T04:59:39.086Z,7.20
2024-03-02T05:00:39.222Z,7.16
2024-03-02T05:01:39.103Z,7.15
2024-03-02T05:02:39.059Z,7.13
2024-03-02T05:03:39.093Z,7.12
2024-03-02T05:04:39.028Z,7.15
2024-03-02T05:05:39.014Z,7.13
2024-03-02T05:06:39.036Z,7.13
2024-03-02T05:07:39.000Z,7.17
2024-03-02T05:08:39.000Z,7.20
2024-03-02T05:09:39.010Z,7.20
2024-03-02T05:10:38.988Z,7.21
2024-03-02T05:11:38.999Z,7.21
2024-03-02T05:12:38.999Z,7.21
2024-03-02T05:13:38.940Z,7.25
2024-03-02T05:14:38.939Z,7.30
2024-03-02T05:15:38.939Z,7.28
2024-03-02T05:16:38.913Z,7.24
2024-03-02T05:17:38.965Z,7.24
2024-03-02T05:18:38.910Z,7.25
2024-03-02T05:19:38.875Z,7.23
2024-03-02T05:20:38.938Z,7.23
2024-03-02T05:21:38.891Z,7.21
2024-03-02T05:22:38.865Z,7.16
2024-03-02T05:23:38.819Z,7.13
2024-03-02T05:24:38.885Z,7.09
2024-03-02T05:25:38.816Z,7.07
2024-03-02T05:26:38.792Z,7.06
2024-03-02T05:27:38.823Z,7.05
2024-03-02T05:28:38.775Z,7.03
2024-03-02T05:29:38.916Z,7.05
2024-03-02T05:30:38.790Z,7.03
2024-03-02T05:31:38.754Z,6.98
2024-03-02T05:32:38.768Z,7.02
2024-03-02T05:33:38.834Z,6.99
2024-03-02T05:34:38.741Z,6.99
2024-03-02T05:35:38.698Z,6.97
2024-03-02T05:36:38.734Z,6.98
2024-03-02T05:37:38.670Z,6.98
2024-03-02T05:38:38.662Z,6.95
2024-03-02T05:39:38.703Z,6.97
2024-03-02T05:40:38.651Z,6.97
2024-03-02T05:41:38.633Z,6.98
2024-03-02T05:42:38.654Z,6.98
2024-03-02T05:43:38.614Z,6.98
2024-03-02T05:44:38.630Z,6.95
2024-03-02T05:45:38.600Z,6.95
2024-03-02T05:46:40.558Z,6.98
2024-03-02T05:47:38.590Z,6.99
2024-03-02T05:48:38.595Z,6.98
2024-03-02T05:49:38.551Z,6.98
2024-03-02T05:50:38.546Z,6.98
2024-03-02T05:51:38.549Z,6.97
2024-03-02T05:52:38.513Z,6.98
2024-03-02T05:53:38.519Z,6.98
2024-03-02T05:54:38.539Z,6.99
2024-03-02T05:55:38.514Z,6.99
2024-03-02T05:56:38.519Z,6.97
2024-03-02T05:57:38.499Z,6.97
2024-03-02T05:58:38.475Z,6.98
2024-03-02T05:59:38.433Z,6.98
2024-03-02T06:00:38.453Z,7.02
2024-03-02T06:01:38.517Z,6.99
2024-03-02T06:02:40.222Z,6.97
2024-03-02T06:03:38.423Z,6.98
2024-03-02T06:04:38.414Z,7.02
2024-03-02T06:05:38.365Z,7.02
2024-03-02T06:06:38.402Z,7.07
2024-03-02T06:07:38.359Z,7.09
2024-03-02T06:08:38.360Z,7.12
2024-03-02T06:09:38.362Z,7.13
2024-03-02T06:10:38.315Z,7.15
2024-03-02T06:11:38.316Z,7.16
2024-03-02T06:12:38.353Z,7.20
2024-03-02T06:13:38.277Z,7.17
2024-03-02T06:14:38.305Z,7.16
2024-03-02T06:15:38.326Z,7.17
2024-03-02T06:16:38.281Z,7.17
2024-03-02T06:17:38.300Z,7.20
2024-03-02T06:18:38.235Z,7.24
2024-03-02T06:19:38.220Z,7.27
2024-03-02T06:20:38.220Z,7.28
2024-03-02T06:21:38.252Z,7.28
2024-03-02T06:22:38.418Z,7.30
2024-03-02T06:23:38.177Z,7.28
2024-03-02T06:24:38.219Z,7.32
2024-03-02T06:25:38.159Z,7.32
2024-03-02T06:26:38.158Z,7.34
2024-03-02T06:27:38.205Z,7.34
2024-03-02T06:28:38.127Z,7.35
2024-03-02T06:29:38.118Z,7.39
2024-03-02T06:30:38.371Z,7.39
2024-03-02T06:31:38.167Z,7.42
2024-03-02T06:32:38.097Z,7.42
2024-03-02T06:33:38.111Z,7.42
2024-03-02T06:34:38.063Z,7.42
2024-03-02T06:35:38.076Z,7.40
2024-03-02T06:36:38.093Z,7.37
2024-03-02T06:37:38.029Z,7.37
2024-03-02T06:38:39.758Z,7.35
2024-03-02T06:39:38.039Z,7.35
2024-03-02T06:40:38.009Z,7.32
2024-03-02T06:41:37.980Z,7.34
2024-03-02T06:42:37.993Z,7.34
2024-03-02T06:43:37.978Z,7.37
2024-03-02T06:44:37.962Z,7.35
2024-03-02T06:45:38.011Z,7.35
2024-03-02T06:46:37.932Z,7.37
2024-03-02T06:47:38.026Z,7.37
2024-03-02T06:48:37.935Z,7.39
2024-03-02T06:49:37.906Z,7.39
2024-03-02T06:50:37.889Z,7.40
2024-03-02T06:51:37.912Z,7.40
2024-03-02T06:52:37.880Z,7.42
2024-03-02T06:53:37.847Z,7.43
2024-03-02T06:54:37.934Z,7.46
2024-03-02T06:55:37.832Z,7.48
2024-03-02T06:56:37.828Z,7.50
2024-03-02T06:57:37.829Z,7.50
2024-03-02T06:58:37.812Z,7.52
2024-03-02T06:59:37.809Z,7.50
2024-03-02T07:00:37.865Z,7.52
2024-03-02T07:01:37.797Z,7.50
2024-03-02T07:02:37.776Z,7.55
2024-03-02T07:03:37.783Z,7.58
2024-03-02T07:04:37.736Z,7.55
2024-03-02T07:05:37.731Z,7.57
2024-03-02T07:06:37.729Z,7.57
2024-03-02T07:07:37.702Z,7.63
2024-03-02T07:08:37.711Z,7.64
2024-03-02T07:09:37.695Z,7.69
2024-03-02T07:10:37.679Z,7.79
2024-03-02T07:11:37.669Z,7.82
2024-03-02T07:12:37.720Z,7.80
2024-03-02T07:13:37.649Z,7.83
2024-03-02T07:14:37.628Z,7.86
2024-03-02T07:15:37.658Z,7.93
2024-03-02T07:16:37.624Z,7.98
2024-03-02T07:17:37.611Z,8.00
2024-03-02T07:18:37.629Z,8.05
2024-03-02T07:19:37.660Z,8.08
2024-03-02T07:20:37.580Z,8.15
2024-03-02T07:21:37.616Z,8.22
2024-03-02T07:22:37.548Z,8.23
2024-03-02T07:23:37.565Z,8.26
2024-03-02T07:24:37.570Z,8.29
2024-03-02T07:27:37.532Z,8.45
2024-03-02T07:28:37.478Z,8.44
2024-03-02T07:29:37.467Z,8.55
2024-03-02T07:30:37.488Z,8.58
2024-03-02T07:31:37.638Z,8.59
2024-03-02T07:32:37.440Z,8.61
2024-03-02T07:33:37.478Z,8.68
2024-03-02T07:34:37.411Z,8.73
2024-03-02T07:35:37.415Z,8.74
2024-03-02T07:36:37.430Z,8.74
2024-03-02T07:37:37.386Z,8.79
2024-03-02T07:38:37.373Z,8.89
2024-03-02T07:39:37.368Z,8.96
2024-03-02T07:40:37.369Z,9.08
2024-03-02T07:41:37.351Z,9.17
2024-03-02T07:42:37.323Z,9.17
2024-03-02T07:43:37.328Z,9.14
2024-03-02T07:44:38.114Z,9.28
2024-03-02T07:45:37.343Z,9.38
2024-03-02T07:46:37.282Z,9.46
2024-03-02T07:47:37.313Z,9.50
2024-03-02T07:48:37.300Z,9.51
2024-03-02T07:49:37.263Z,9.58
2024-03-02T07:50:37.261Z,9.65
2024-03-02T07:51:37.277Z,9.71
2024-03-02T07:52:37.220Z,9.76
2024-03-02T07:53:37.208Z,9.83
2024-03-02T07:54:37.220Z,9.91
2024-03-02T07:55:37.209Z,9.86
2024-03-02T07:56:37.169Z,9.84
2024-03-02T07:57:37.181Z,9.79
2024-03-02T07:58:37.150Z,9.84
2024-03-02T07:59:37.150Z,9.83
2024-03-02T08:00:37.186Z,9.81
2024-03-02T08:01:37.227Z,9.84
2024-03-02T08:02:37.138Z,9.84
2024-03-02T08:03:37.141Z,9.89
2024-03-02T08:04:37.121Z,9.83
2024-03-02T08:05:37.075Z,9.93
2024-03-02T08:06:37.089Z,9.89
2024-03-02T08:07:37.063Z,9.93
2024-03-02T08:08:37.057Z,9.91
2024-03-02T08:09:37.075Z,9.81
2024-03-02T08:10:37.032Z,9.78
2024-03-02T08:11:37.022Z,9.75
2024-03-02T08:12:37.030Z,9.74
2024-03-02T08:13:37.022Z,9.75
2024-03-02T08:14:36.984Z,9.79
2024-03-02T08:15:37.016Z,9.83
2024-03-02T08:16:36.951Z,9.83
2024-03-02T08:17:38.371Z,9.81
2024-03-02T08:18:37.034Z,9.79
2024-03-02T08:19:36.925Z,9.79
2024-03-02T08:20:36.906Z,9.86
2024-03-02T08:21:36.964Z,9.90
2024-03-02T08:22:36.901Z,9.93
2024-03-02T08:23:36.881Z,9.97
2024-03-02T08:24:36.950Z,10.04
2024-03-02T08:25:36.856Z,10.11
2024-03-02T08:26:36.860Z,10.11
2024-03-02T08:27:37.473Z,10.17
2024-03-02T08:28:36.828Z,10.14
2024-03-02T08:29:36.828Z,10.23
2024-03-02T08:30:36.839Z,10.32
2024-03-02T08:31:38.948Z,10.32
2024-03-02T08:32:37.171Z,10.34
2024-03-02T08:33:38.675Z,10.29
2024-03-02T08:34:36.755Z,10.29
2024-03-02T08:35:36.753Z,10.26
2024-03-02T08:36:36.968Z,10.30
2024-03-02T08:37:36.723Z,10.33
2024-03-02T08:38:36.717Z,10.33
2024-03-02T08:39:36.745Z,10.26
2024-03-02T08:40:36.725Z,10.27
2024-03-02T08:41:36.831Z,10.26
2024-03-02T08:42:36.713Z,10.26
2024-03-02T08:43:36.661Z,10.25
2024-03-02T08:44:36.652Z,10.18
2024-03-02T08:45:36.666Z,10.17
2024-03-02T08:46:36.649Z,10.17
2024-03-02T08:47:36.651Z,10.22
2024-03-02T08:48:36.733Z,10.27
2024-03-02T08:49:36.610Z,10.33
2024-03-02T08:50:36.616Z,10.36
2024-03-02T08:51:36.636Z,10.41
2024-03-02T08:52:36.566Z,10.44
2024-03-02T08:53:36.557Z,10.52
2024-03-02T08:54:36.557Z,10.53
2024-03-02T08:55:36.560Z,10.60
2024-03-02T08:56:36.521Z,10.61
2024-03-02T08:57:36.607Z,10.66
2024-03-02T08:58:36.489Z,10.73
2024-03-02T08:59:36.492Z,10.79
2024-03-02T09:00:36.617Z,10.85
2024-03-02T09:01:36.556Z,10.88
2024-03-02T09:02:36.474Z,10.81
2024-03-02T09:03:36.502Z,10.82
2024-03-02T09:04:36.443Z,10.86
2024-03-02T09:05:36.416Z,10.86
2024-03-02T09:06:36.522Z,10.88
2024-03-02T09:07:36.577Z,10.86
2024-03-02T09:08:36.394Z,10.92
2024-03-02T09:09:36.418Z,10.96
2024-03-02T09:10:36.366Z,10.97
2024-03-02T09:11:36.368Z,11.00
2024-03-02T09:12:36.383Z,11.03
2024-03-02T09:13:36.412Z,11.09
2024-03-02T09:14:36.344Z,11.10
2024-03-02T09:15:37.263Z,11.04
2024-03-02T09:16:36.325Z,11.09
2024-03-02T09:17:36.310Z,11.11
2024-03-02T09:18:36.376Z,11.06
2024-03-02T09:19:36.273Z,11.04
2024-03-02T09:20:36.272Z,11.07
2024-03-02T09:21:36.287Z,11.10
2024-03-02T09:22:36.247Z,11.11
2024-03-02T09:23:36.241Z,11.14
2024-03-02T09:24:36.240Z,11.15
2024-03-02T09:25:36.197Z,11.17
2024-03-02T09:26:36.182Z,11.21
2024-03-02T09:27:36.219Z,11.19
2024-03-02T09:28:36.233Z,11.21
2024-03-02T09:29:36.150Z,11.24
2024-03-02T09:30:36.206Z,11.24
2024-03-02T09:31:36.124Z,11.25
2024-03-02T09:32:36.218Z,11.29
2024-03-02T09:33:36.303Z,11.32
2024-03-02T09:34:36.181Z,11.35
2024-03-02T09:35:36.089Z,11.29
2024-03-02T09:36:36.133Z,11.33
2024-03-02T09:37:36.070Z,11.36
2024-03-02T09:38:36.059Z,11.39
2024-03-02T09:39:36.069Z,11.46
2024-03-02T09:40:36.032Z,11.58
2024-03-02T09:41:36.116Z,11.72
2024-03-02T09:42:36.074Z,11.80
2024-03-02T09:43:36.031Z,11.86
2024-03-02T09:44:35.995Z,11.99
2024-03-02T09:45:36.016Z,11.96
2024-03-02T09:46:36.019Z,11.98
2024-03-02T09:47:35.970Z,11.98
2024-03-02T09:48:35.951Z,12.01
2024-03-02T09:49:37.443Z,12.09
2024-03-02T09:50:35.977Z,12.16
2024-03-02T09:51:35.927Z,12.14
2024-03-02T09:52:35.907Z,12.13
2024-03-02T09:53:35.920Z,12.17
2024-03-02T09:54:35.878Z,12.17
2024-03-02T09:55:35.868Z,12.09
2024-03-02T09:56:35.858Z,12.12
2024-03-02T09:57:36.690Z,12.10
2024-03-02T09:58:35.855Z,12.16
2024-03-02T09:59:35.819Z,12.20
2024-03-02T10:00:35.845Z,12.27
2024-03-02T10:01:35.812Z,12.32
2024-03-02T10:02:35.808Z,12.27
2024-03-02T10:03:35.862Z,12.34
2024-03-02T10:04:35.870Z,12.41
2024-03-02T10:05:35.782Z,12.46
2024-03-02T10:06:35.780Z,12.52
2024-03-02T10:07:35.737Z,12.54
2024-03-02T10:08:35.869Z,12.54
2024-03-02T10:09:35.899Z,12.54
2024-03-02T10:10:35.827Z,12.62
2024-03-02T10:11:35.685Z,12.71
2024-03-02T10:12:35.747Z,12.83
2024-03-02T10:13:35.701Z,12.97
2024-03-02T10:14:35.710Z,12.92
2024-03-02T10:15:35.719Z,12.65
2024-03-02T10:16:35.656Z,12.79
2024-03-02T10:17:35.691Z,12.97
2024-03-02T10:18:35.698Z,12.92
2024-03-02T10:19:35.751Z,12.87
2024-03-02T10:20:35.647Z,13.00
2024-03-02T10:21:35.597Z,13.07
2024-03-02T10:22:35.584Z,13.17
2024-03-02T10:23:35.580Z,13.23
2024-03-02T10:24:35.608Z,13.38
2024-03-02T10:26:35.545Z,13.66
2024-03-02T10:27:35.580Z,13.70
2024-03-02T10:28:35.515Z,13.67
2024-03-02T10:29:35.514Z,13.54
2024-03-02T10:30:35.496Z,13.51
2024-03-02T10:31:35.523Z,13.45
2024-03-02T10:32:35.501Z,13.44
2024-03-02T10:33:35.474Z,13.64
2024-03-02T10:34:35.529Z,13.66
2024-03-02T10:35:35.435Z,13.79
2024-03-02T10:36:35.427Z,13.77
2024-03-02T10:37:35.426Z,13.75
2024-03-02T10:38:35.401Z,13.63
2024-03-02T10:39:35.400Z,13.71
2024-03-02T10:40:35.405Z,13.70
2024-03-02T10:41:35.377Z,13.71
2024-03-02T10:42:35.411Z,13.71
2024-03-02T10:43:35.359Z,13.85
2024-03-02T10:44:35.334Z,13.81
2024-03-02T10:45:35.366Z,13.66
2024-03-02T10:46:35.336Z,13.81
2024-03-02T10:47:35.351Z,13.87
2024-03-02T10:48:35.306Z,13.87
2024-03-02T10:49:35.300Z,13.85
2024-03-02T10:50:35.316Z,13.96
2024-03-02T10:51:35.616Z,14.20
2024-03-02T10:52:35.253Z,14.27
2024-03-02T10:53:35.252Z,14.28
2024-03-02T10:54:35.270Z,14.39
2024-03-02T10:55:35.303Z,14.54
2024-03-02T10:56:35.325Z,14.47
2024-03-02T10:57:35.277Z,14.37
2024-03-02T10:58:35.457Z,14.45
2024-03-02T10:59:35.181Z,14.37
2024-03-02T11:00:35.252Z,14.40
2024-03-02T11:01:35.287Z,14.37
2024-03-02T11:02:35.155Z,14.35
2024-03-02T11:03:35.152Z,14.43
2024-03-02T11:04:35.129Z,14.52
2024-03-02T11:05:35.145Z,14.37
2024-03-02T11:06:35.164Z,14.17
2024-03-02T11:07:35.124Z,13.88
2024-03-02T11:08:35.083Z,13.75
2024-03-02T11:09:35.086Z,13.60
2024-03-02T11:10:35.073Z,13.62
2024-03-02T11:11:35.123Z,13.63
2024-03-02T11:12:35.098Z,13.62
2024-03-02T11:13:37.741Z,13.59
2024-03-02T11:14:35.024Z,13.51
2024-03-02T11:15:35.093Z,13.51
2024-03-02T11:16:35.009Z,13.55
2024-03-02T11:17:35.007Z,13.75
2024-03-02T11:18:35.219Z,13.92
2024-03-02T11:19:35.045Z,14.06
2024-03-02T11:20:34.986Z,14.24
2024-03-02T11:21:34.946Z,14.29
2024-03-02T11:22:34.948Z,14.22
2024-03-02T11:23:34.983Z,14.00
2024-03-02T11:24:37.767Z,13.91
2024-03-02T11:25:34.909Z,13.79
2024-03-02T11:26:34.892Z,13.64
2024-03-02T11:27:34.874Z,13.59
2024-03-02T11:28:34.893Z,13.71
2024-03-02T11:29:34.877Z,13.84
2024-03-02T11:30:35.655Z,13.91
2024-03-02T11:31:34.838Z,13.99
2024-03-02T11:32:34.863Z,14.04
2024-03-02T11:33:34.860Z,14.02
2024-03-02T11:34:34.798Z,14.15
2024-03-02T11:35:34.800Z,14.32
2024-03-02T11:36:34.808Z,14.40
2024-03-02T11:37:34.788Z,14.50
2024-03-02T11:38:34.882Z,14.50
2024-03-02T11:39:34.768Z,14.55
2024-03-02T11:40:34.752Z,14.55
2024-03-02T11:41:34.737Z,14.51
2024-03-02T11:42:34.791Z,14.50
2024-03-02T11:43:34.781Z,14.55
2024-03-02T11:44:34.738Z,14.72
2024-03-02T11:45:34.826Z,14.78
2024-03-02T11:46:34.682Z,14.86
2024-03-02T11:47:35.664Z,14.96
2024-03-02T11:48:34.743Z,14.84
2024-03-02T11:49:34.646Z,14.86
2024-03-02T11:50:34.659Z,14.81
2024-03-02T11:51:34.697Z,14.70
2024-03-02T11:52:34.647Z,14.64
2024-03-02T11:53:36.117Z,14.70
2024-03-02T11:54:34.623Z,14.78
2024-03-02T11:55:34.592Z,15.07
2024-03-02T11:56:34.593Z,14.96
2024-03-02T11:57:34.598Z,14.89
2024-03-02T11:58:34.549Z,14.83
2024-03-02T11:59:34.548Z,14.78
2024-03-02T12:00:34.552Z,14.81
2024-03-02T12:01:34.661Z,14.88
2024-03-02T12:02:34.519Z,14.80
2024-03-02T12:03:34.520Z,14.61
2024-03-02T12:04:34.567Z,14.36
2024-03-02T12:05:34.700Z,14.15
2024-03-02T12:06:34.503Z,14.03
2024-03-02T12:07:34.455Z,14.10
2024-03-02T12:08:34.444Z,14.24
2024-03-02T12:09:34.511Z,14.29
2024-03-02T12:10:34.466Z,14.33
2024-03-02T12:11:34.617Z,14.43
2024-03-02T12:12:34.431Z,14.51
2024-03-02T12:13:34.481Z,14.70
2024-03-02T12:14:34.491Z,14.92
2024-03-02T12:15:34.656Z,14.83
2024-03-02T12:16:34.442Z,14.83
2024-03-02T12:17:34.403Z,14.69
2024-03-02T12:18:34.452Z,14.78
2024-03-02T12:19:34.325Z,15.02
2024-03-02T12:20:34.346Z,15.23
2024-03-02T12:21:34.325Z,15.27
2024-03-02T12:22:34.349Z,15.25
2024-03-02T12:23:34.282Z,15.11
2024-03-02T12:24:34.311Z,14.81
2024-03-02T12:25:34.413Z,14.80
2024-03-02T12:26:34.265Z,14.86
2024-03-02T12:27:34.268Z,14.94
2024-03-02T12:28:35.128Z,14.84
2024-03-02T12:29:34.234Z,14.94
2024-03-02T12:30:34.251Z,15.01
2024-03-02T12:31:34.291Z,14.95
2024-03-02T12:32:34.200Z,14.84
2024-03-02T12:33:34.249Z,14.83
2024-03-02T12:34:34.305Z,14.70
2024-03-02T12:35:34.152Z,14.64
2024-03-02T12:36:34.164Z,14.60
2024-03-02T12:37:34.142Z,14.46
2024-03-02T12:38:34.129Z,14.35
2024-03-02T12:39:34.480Z,14.28
2024-03-02T12:40:34.098Z,14.37
2024-03-02T12:41:34.088Z,14.40
2024-03-02T12:42:34.119Z,14.43
2024-03-02T12:43:34.078Z,14.32
2024-03-02T12:44:34.065Z,14.15
2024-03-02T12:45:34.088Z,14.22
2024-03-02T12:46:34.029Z,14.28
2024-03-02T12:47:34.069Z,14.43
2024-03-02T12:48:34.019Z,14.54
2024-03-02T12:49:34.007Z,14.78
2024-03-02T12:50:33.983Z,14.84
2024-03-02T12:51:34.027Z,15.02
2024-03-02T12:52:33.989Z,15.11
2024-03-02T12:53:34.024Z,15.16
2024-03-02T12:54:34.172Z,14.96
2024-03-02T12:55:33.947Z,14.80
2024-03-02T12:56:33.933Z,14.80
2024-03-02T12:57:34.137Z,14.80
2024-03-02T12:58:33.901Z,14.75
2024-03-02T12:59:33.898Z,14.68
2024-03-02T13:00:33.977Z,14.68
2024-03-02T13:01:34.046Z,14.72
2024-03-02T13:02:33.884Z,14.77
2024-03-02T13:03:33.883Z,14.65
2024-03-02T13:04:33.853Z,14.62
2024-03-02T13:05:33.874Z,14.57
2024-03-02T13:06:33.888Z,14.51
2024-03-02T13:07:33.827Z,14.55
2024-03-02T13:08:33.794Z,14.54
2024-03-02T13:09:33.863Z,14.52
2024-03-02T13:10:33.777Z,14.45
2024-03-02T13:11:33.775Z,14.51